Time;durP1;ratioP1;P1;durP2;ratioP2;P2;SDS_P1;SDS_P2;PMS_P1;PMS_P2;Temp;Humidity;BMP_temperature;BMP_pressure;BME280_temperature;BME280_humidity;BME280_pressure;Samples;Min_cycle;Max_cycle;Signal;HPM_P1;HPM_P2
2022/03/16 00:00:50;;;;;;;81.70;53.60;;;;;;;6.71;58.18;100827.17;107764;1270;94659;-73
2022/03/16 00:03:22;;;;;;;79.00;52.50;;;;;;;6.64;58.38;100824.63;107405;1271;139357;-73
2022/03/16 00:05:54;;;;;;;77.90;49.20;;;;;;;6.57;58.47;100831.75;106131;1271;110699;-72
2022/03/16 00:08:28;;;;;;;82.00;49.70;;;;;;;6.50;58.43;100823.52;106267;1270;109143;-73
2022/03/16 00:11:01;;;;;;;81.40;49.70;;;;;;;6.44;58.49;100829.58;107652;1270;139244;-73
2022/03/16 00:13:34;;;;;;;83.30;50.30;;;;;;;6.41;59.04;100824.93;107753;1271;94788;-72
2022/03/16 00:16:07;;;;;;;78.20;50.60;;;;;;;6.42;58.91;100825.09;107138;1271;138111;-73
2022/03/16 00:18:39;;;;;;;78.00;49.10;;;;;;;6.40;59.08;100821.66;107763;1271;109109;-72
2022/03/16 00:21:12;;;;;;;78.50;51.40;;;;;;;6.38;59.06;100817.88;107817;1270;108478;-73
2022/03/16 00:23:44;;;;;;;80.30;52.00;;;;;;;6.33;58.98;100814.63;107642;1270;137731;-73
2022/03/16 00:26:16;;;;;;;87.10;53.70;;;;;;;6.31;58.99;100809.81;107731;1271;94700;-73
2022/03/16 00:28:48;;;;;;;84.10;53.50;;;;;;;6.28;59.21;100806.89;107702;1270;137382;-74
2022/03/16 00:31:20;;;;;;;86.80;55.20;;;;;;;6.27;59.39;100806.36;107750;1270;112242;-72
2022/03/16 00:33:53;;;;;;;90.80;55.80;;;;;;;6.23;59.26;100808.45;107713;1270;137681;-72
2022/03/16 00:36:25;;;;;;;90.60;57.10;;;;;;;6.20;59.29;100804.16;107761;1270;107438;-73
2022/03/16 00:38:57;;;;;;;94.40;58.70;;;;;;;6.14;59.35;100802.31;107817;1270;94911;-72
2022/03/16 00:41:31;;;;;;;94.20;58.50;;;;;;;6.09;59.43;100804.38;107625;1269;137544;-73
2022/03/16 00:44:03;;;;;;;94.50;57.90;;;;;;;6.04;59.67;100810.63;107800;1270;111113;-73
2022/03/16 00:46:37;;;;;;;104.00;60.90;;;;;;;5.97;59.69;100809.81;107687;1270;138324;-73
2022/03/16 00:49:09;;;;;;;94.20;57.00;;;;;;;5.91;59.69;100812.23;107731;1271;108836;-71
2022/03/16 00:51:42;;;;;;;92.10;56.40;;;;;;;5.88;59.88;100808.24;107676;1270;138741;-73
2022/03/16 00:54:14;;;;;;;93.80;55.00;;;;;;;5.85;59.90;100802.05;107805;1270;94874;-73
2022/03/16 00:56:47;;;;;;;90.00;54.00;;;;;;;5.88;60.21;100800.64;107787;1270;110069;-72
2022/03/16 00:59:20;;;;;;;89.30;55.20;;;;;;;5.93;60.14;100795.48;107663;1270;138064;-72
2022/03/16 01:01:52;;;;;;;97.30;58.30;;;;;;;5.97;60.25;100794.80;107796;1270;109171;-73
2022/03/16 01:04:24;;;;;;;92.50;59.00;;;;;;;5.98;60.22;100793.05;107644;1270;138761;-73
2022/03/16 01:06:58;;;;;;;100.00;59.80;;;;;;;5.96;60.10;100792.38;107797;1269;94799;-73
2022/03/16 01:09:31;;;;;;;95.00;59.50;;;;;;;5.94;60.27;100794.63;107679;1271;137786;-73
2022/03/16 01:12:03;;;;;;;97.70;60.70;;;;;;;5.89;59.88;100796.69;107788;1268;108871;-73
2022/03/16 01:14:36;;;;;;;100.00;61.40;;;;;;;5.85;60.32;100794.63;107711;1269;108071;-74
2022/03/16 01:17:09;;;;;;;99.80;61.50;;;;;;;5.85;60.31;100799.80;107677;1270;137799;-73
2022/03/16 01:19:41;;;;;;;105.90;62.20;;;;;;;5.81;60.05;100801.20;107760;1271;94764;-73
2022/03/16 01:22:14;;;;;;;105.20;64.10;;;;;;;5.74;60.33;100803.30;107732;1270;138529;-74
2022/03/16 01:24:47;;;;;;;98.60;62.50;;;;;;;5.68;60.27;100805.39;107751;1271;108398;-73
2022/03/16 01:27:19;;;;;;;99.60;61.90;;;;;;;5.61;60.44;100805.59;107774;1269;107422;-73
2022/03/16 01:29:52;;;;;;;100.30;61.00;;;;;;;5.57;60.58;100798.52;107602;1271;138066;-73
2022/03/16 01:32:24;;;;;;;96.00;60.70;;;;;;;5.55;60.58;100792.65;107736;1271;94865;-74
2022/03/16 01:34:57;;;;;;;89.40;55.90;;;;;;;5.58;60.83;100796.63;107659;1271;138155;-73
2022/03/16 01:37:30;;;;;;;88.90;57.20;;;;;;;5.61;60.79;100802.31;107759;1271;109137;-73
2022/03/16 01:40:03;;;;;;;92.50;58.60;;;;;;;5.63;60.96;100805.07;107602;1271;138187;-73
2022/03/16 01:42:36;;;;;;;92.90;60.40;;;;;;;5.65;60.83;100807.64;107724;1271;94799;-73
2022/03/16 01:45:10;;;;;;;97.30;60.30;;;;;;;5.70;60.96;100804.86;107742;1270;94644;-73
2022/03/16 01:47:43;;;;;;;97.50;59.30;;;;;;;5.75;60.75;100798.13;107684;1270;137533;-74
2022/03/16 01:50:15;;;;;;;92.80;58.90;;;;;;;5.74;60.87;100801.57;107799;1270;107873;-73
2022/03/16 01:52:47;;;;;;;91.20;58.00;;;;;;;5.73;60.79;100801.05;107696;1270;137504;-73
2022/03/16 01:55:20;;;;;;;92.20;57.70;;;;;;;5.70;60.86;100803.30;107706;1271;94860;-73
2022/03/16 01:57:52;;;;;;;86.90;54.60;;;;;;;5.65;60.73;100801.77;107649;1270;160235;-73
2022/03/16 02:00:24;;;;;;;88.10;55.90;;;;;;;5.62;60.77;100803.52;107813;1270;110114;-73
2022/03/16 02:02:57;;;;;;;85.50;54.70;;;;;;;5.58;60.73;100807.50;107719;1271;106803;-73
2022/03/16 02:05:30;;;;;;;82.50;53.60;;;;;;;5.56;60.96;100802.48;107589;1271;137193;-72
2022/03/16 02:08:05;;;;;;;80.30;52.80;;;;;;;5.53;61.01;100801.12;107778;1269;94645;-73
2022/03/16 02:10:38;;;;;;;80.00;50.60;;;;;;;5.49;61.30;100800.79;107712;1269;138590;-72
2022/03/16 02:13:12;;;;;;;80.80;50.00;;;;;;;5.48;61.18;100802.69;107736;1270;108947;-73
2022/03/16 02:15:44;;;;;;;79.50;49.20;;;;;;;5.50;61.43;100796.81;107677;1270;139549;-72
2022/03/16 02:18:17;;;;;;;73.60;47.70;;;;;;;5.54;61.43;100799.73;107723;1271;108793;-73
2022/03/16 02:20:52;;;;;;;80.30;50.80;;;;;;;5.58;61.26;100796.28;107737;1271;96352;-73
2022/03/16 02:23:24;;;;;;;81.20;50.80;;;;;;;5.65;61.06;100795.91;107604;1271;137501;-73
2022/03/16 02:25:57;;;;;;;83.70;52.10;;;;;;;5.68;61.19;100795.73;107789;1271;110026;-73
2022/03/16 02:28:29;;;;;;;88.70;56.10;;;;;;;5.70;61.18;100794.16;107626;1271;138251;-73
2022/03/16 02:31:01;;;;;;;88.70;57.40;;;;;;;5.67;61.14;100794.52;107727;1271;108719;-72
2022/03/16 02:33:34;;;;;;;92.80;57.10;;;;;;;5.67;61.05;100795.39;107628;1270;138450;-72
2022/03/16 02:36:06;;;;;;;93.20;58.10;;;;;;;5.65;60.95;100791.77;107724;1271;94637;-73
2022/03/16 02:38:39;;;;;;;100.60;62.20;;;;;;;5.65;61.15;100790.57;107713;1272;110320;-72
2022/03/16 02:41:12;;;;;;;100.90;60.00;;;;;;;5.67;61.30;100787.45;107733;1270;139529;-73
2022/03/16 02:43:44;;;;;;;101.60;62.00;;;;;;;5.64;61.23;100787.81;107707;1270;108181;-74
2022/03/16 02:46:16;;;;;;;104.00;62.80;;;;;;;5.63;61.19;100792.64;107648;1271;138321;-74
2022/03/16 02:48:48;;;;;;;104.80;63.40;;;;;;;5.63;61.57;100789.02;107730;1271;94913;-73
2022/03/16 02:51:20;;;;;;;100.10;60.90;;;;;;;5.64;61.35;100786.77;107814;1270;109500;-74
2022/03/16 02:53:52;;;;;;;95.20;59.60;;;;;;;5.64;61.46;100788.15;107598;1271;138265;-73
2022/03/16 02:56:27;;;;;;;98.50;58.60;;;;;;;5.64;61.48;100785.39;107730;1270;108964;-74
2022/03/16 02:58:59;;;;;;;94.80;57.30;;;;;;;5.67;61.34;100781.41;107616;1271;139179;-74
2022/03/16 03:01:31;;;;;;;94.40;56.20;;;;;;;5.67;61.21;100779.34;107755;1270;94521;-73
2022/03/16 03:04:03;;;;;;;93.40;54.90;;;;;;;5.65;61.34;100776.77;107670;1270;137633;-73
2022/03/16 03:06:36;;;;;;;88.10;54.50;;;;;;;5.66;61.32;100774.69;107769;1271;108610;-73
2022/03/16 03:09:08;;;;;;;85.80;54.70;;;;;;;5.69;61.23;100774.50;107774;1270;109020;-73
2022/03/16 03:11:40;;;;;;;93.40;56.50;;;;;;;5.69;61.31;100777.27;107713;1269;137555;-74
2022/03/16 03:14:12;;;;;;;97.30;57.00;;;;;;;5.67;61.23;100778.65;107852;1269;94871;-74
2022/03/16 03:16:46;;;;;;;93.30;57.00;;;;;;;5.69;61.41;100777.60;107773;1269;137608;-74
2022/03/16 03:19:24;;;;;;;97.60;58.20;;;;;;;5.68;61.38;100774.16;107846;1269;109360;-74
2022/03/16 03:21:56;;;;;;;88.20;54.60;;;;;;;5.65;61.15;100776.75;107741;1269;137781;-74
2022/03/16 03:24:28;;;;;;;96.00;56.70;;;;;;;5.63;61.13;100777.47;107809;1269;94946;-73
2022/03/16 03:27:01;;;;;;;89.30;53.90;;;;;;;5.59;61.31;100781.98;107838;1269;94582;-74
2022/03/16 03:29:33;;;;;;;89.30;55.30;;;;;;;5.56;61.34;100779.90;107623;1270;139144;-73
2022/03/16 03:32:06;;;;;;;85.50;53.60;;;;;;;5.54;61.40;100780.41;107856;1269;107902;-75
2022/03/16 03:34:39;;;;;;;85.80;52.20;;;;;;;5.56;61.58;100784.73;107692;1270;139216;-73
2022/03/16 03:37:12;;;;;;;80.50;51.70;;;;;;;5.59;61.73;100789.55;107861;1269;94678;-73
2022/03/16 03:39:45;;;;;;;81.90;53.30;;;;;;;5.60;61.43;100795.77;107722;1269;138351;-72
2022/03/16 03:42:17;;;;;;;87.20;55.20;;;;;;;5.57;61.27;100802.34;107842;1269;111450;-72
2022/03/16 03:44:49;;;;;;;92.80;56.10;;;;;;;5.57;61.62;100799.40;107854;1269;107635;-73
2022/03/16 03:47:21;;;;;;;87.70;55.10;;;;;;;5.57;61.74;100803.20;107728;1269;137577;-73
2022/03/16 03:49:53;;;;;;;88.10;54.50;;;;;;;5.57;61.88;100798.89;107831;1270;95057;-73
2022/03/16 03:52:26;;;;;;;89.20;55.00;;;;;;;5.55;61.48;100798.34;107700;1269;137924;-72
2022/03/16 03:54:58;;;;;;;91.40;55.70;;;;;;;5.50;61.39;100798.88;107816;1269;110804;-73
2022/03/16 03:57:30;;;;;;;89.30;54.90;;;;;;;5.45;61.73;100796.31;107873;1269;108936;-73
2022/03/16 04:00:02;;;;;;;90.60;56.90;;;;;;;5.42;61.66;100802.88;107758;1269;139190;-73
2022/03/16 04:02:49;;;;;;;87.10;53.80;;;;;;;5.39;61.67;100804.80;107852;1270;94942;-73
2022/03/16 04:05:22;;;;;;;87.80;53.00;;;;;;;5.33;61.66;100803.58;107651;1269;137921;-73
2022/03/16 04:07:55;;;;;;;83.80;50.40;;;;;;;5.30;62.14;100802.56;107752;1270;110348;-73
2022/03/16 04:10:27;;;;;;;84.30;51.10;;;;;;;5.29;61.81;100808.25;107686;1270;139008;-73
2022/03/16 04:13:01;;;;;;;79.20;49.70;;;;;;;5.28;62.16;100806.87;107795;1270;108810;-74
2022/03/16 04:15:33;;;;;;;83.60;50.40;;;;;;;5.29;61.98;100804.96;107813;1270;95665;-73
2022/03/16 04:18:06;;;;;;;80.40;50.30;;;;;;;5.29;62.12;100799.11;107727;1269;140215;-72
2022/03/16 04:20:38;;;;;;;79.50;51.60;;;;;;;5.30;62.08;100798.59;107827;1269;111369;-73
2022/03/16 04:23:11;;;;;;;80.40;52.00;;;;;;;5.31;62.14;100796.00;107722;1270;137575;-72
2022/03/16 04:25:43;;;;;;;83.10;51.80;;;;;;;5.29;62.18;100789.80;107806;1269;107478;-73
2022/03/16 04:28:15;;;;;;;81.70;52.40;;;;;;;5.26;62.09;100788.26;107695;1268;138269;-73
2022/03/16 04:30:48;;;;;;;81.20;52.80;;;;;;;5.24;62.24;100786.89;107798;1270;94716;-73
2022/03/16 04:33:20;;;;;;;84.00;53.00;;;;;;;5.21;62.11;100782.75;107838;1269;111294;-73
2022/03/16 04:35:52;;;;;;;85.30;53.80;;;;;;;5.18;62.39;100781.18;107629;1270;138012;-73
2022/03/16 04:38:25;;;;;;;89.30;53.80;;;;;;;5.19;62.51;100781.70;107809;1270;108887;-72
2022/03/16 04:40:58;;;;;;;86.80;53.10;;;;;;;5.18;62.45;100780.33;107686;1270;137536;-73
2022/03/16 04:43:30;;;;;;;79.00;51.00;;;;;;;5.17;62.53;100786.36;107831;1270;94708;-73
2022/03/16 04:46:04;;;;;;;74.90;48.30;;;;;;;5.16;62.72;100787.23;107678;1270;138108;-73
2022/03/16 04:48:36;;;;;;;80.00;49.80;;;;;;;5.16;62.95;100790.84;107841;1269;109261;-74
2022/03/16 04:51:08;;;;;;;80.10;50.70;;;;;;;5.21;62.93;100795.50;107846;1270;108953;-73
2022/03/16 04:53:41;;;;;;;81.60;50.70;;;;;;;5.24;62.70;100800.33;107688;1270;139053;-73
2022/03/16 04:56:14;;;;;;;77.20;49.40;;;;;;;5.27;62.91;100804.46;107856;1269;94906;-74
2022/03/16 04:58:46;;;;;;;81.40;52.80;;;;;;;5.27;62.70;100803.95;107263;1270;137377;-73
2022/03/16 05:01:20;;;;;;;77.60;50.60;;;;;;;5.25;62.74;100804.81;106322;1270;109475;-73
2022/03/16 05:03:52;;;;;;;79.30;51.20;;;;;;;5.21;62.78;100809.30;107391;1269;455492;-73
2022/03/16 05:06:27;;;;;;;83.60;52.10;;;;;;;5.18;62.83;100807.90;107797;1269;94860;-74
2022/03/16 05:08:59;;;;;;;84.40;51.20;;;;;;;5.15;63.03;100810.67;107856;1270;94793;-73
2022/03/16 05:11:31;;;;;;;80.20;51.00;;;;;;;5.13;63.36;100813.09;107713;1270;137983;-74
2022/03/16 05:14:04;;;;;;;80.30;49.50;;;;;;;5.12;63.32;100820.50;107808;1270;109091;-74
2022/03/16 05:16:37;;;;;;;72.10;47.00;;;;;;;5.10;63.17;100823.10;107622;1270;138580;-74
2022/03/16 05:19:10;;;;;;;77.10;48.30;;;;;;;5.09;63.41;100823.10;107759;1269;94953;-74
2022/03/16 05:21:43;;;;;;;77.90;49.40;;;;;;;5.08;63.25;100823.97;107630;1271;138138;-73
2022/03/16 05:24:15;;;;;;;80.10;50.70;;;;;;;5.02;63.26;100822.58;107869;1269;107963;-74
2022/03/16 05:26:48;;;;;;;77.10;48.80;;;;;;;5.01;63.46;100822.56;107832;1269;107836;-74
2022/03/16 05:29:20;;;;;;;79.10;49.50;;;;;;;5.01;63.51;100827.23;107671;1268;138755;-74
2022/03/16 05:31:53;;;;;;;77.90;50.00;;;;;;;5.05;63.52;100828.79;107808;1270;94849;-74
2022/03/16 05:34:25;;;;;;;85.70;53.30;;;;;;;5.07;63.67;100823.79;107751;1270;138549;-74
2022/03/16 05:36:58;;;;;;;79.40;52.00;;;;;;;5.08;63.62;100819.83;107855;1269;109973;-74
2022/03/16 05:39:31;;;;;;;77.20;51.20;;;;;;;5.06;63.53;100823.45;107816;1269;106778;-74
2022/03/16 05:42:03;;;;;;;78.80;50.20;;;;;;;5.06;63.66;100823.96;107716;1269;139433;-74
2022/03/16 05:44:36;;;;;;;79.90;52.90;;;;;;;5.07;63.68;100826.73;107818;1270;96103;-73
2022/03/16 05:47:08;;;;;;;78.30;52.10;;;;;;;5.03;63.84;100831.03;107722;1269;137982;-73
2022/03/16 05:49:41;;;;;;;81.50;52.60;;;;;;;5.01;63.93;100840.48;107792;1269;111002;-74
2022/03/16 05:52:15;;;;;;;83.10;52.50;;;;;;;5.04;64.00;100841.02;106654;1269;138723;-73
2022/03/16 05:54:48;;;;;;;80.00;50.20;;;;;;;5.06;63.87;100840.69;107844;1269;108360;-74
2022/03/16 05:57:21;;;;;;;78.30;48.50;;;;;;;5.04;63.97;100840.17;107794;1269;94874;-75
2022/03/16 05:59:55;;;;;;;81.70;49.00;;;;;;;5.03;64.06;100844.31;107706;1270;139653;-74
2022/03/16 06:02:27;;;;;;;74.80;50.20;;;;;;;5.09;63.98;100846.54;107816;1270;110802;-74
2022/03/16 06:05:00;;;;;;;75.10;48.30;;;;;;;5.10;63.88;100849.81;107655;1270;138136;-74
2022/03/16 06:07:33;;;;;;;78.10;50.60;;;;;;;5.13;63.97;100854.63;107779;1270;107892;-74
2022/03/16 06:10:08;;;;;;;78.30;51.60;;;;;;;5.19;64.04;100851.35;107707;1269;138542;-73
2022/03/16 06:12:54;;;;;;;82.60;50.90;;;;;;;5.24;64.16;100858.43;107854;1270;94837;-74
2022/03/16 06:15:31;;;;;;;82.00;52.50;;;;;;;5.33;64.00;100867.38;107861;1270;110200;-74
2022/03/16 06:18:03;;;;;;;87.60;51.60;;;;;;;5.42;64.03;100873.07;107670;1270;138116;-72
2022/03/16 06:20:37;;;;;;;80.00;51.90;;;;;;;5.51;63.91;100875.29;107771;1270;108929;-74
2022/03/16 06:23:10;;;;;;;78.50;52.20;;;;;;;5.56;63.41;100872.70;107725;1269;139613;-74
2022/03/16 06:25:44;;;;;;;85.70;54.00;;;;;;;5.57;63.35;100880.98;107780;1270;94751;-74
2022/03/16 06:28:17;;;;;;;85.60;56.30;;;;;;;5.58;63.12;100879.27;107719;1270;138011;-73
2022/03/16 06:30:50;;;;;;;85.30;54.80;;;;;;;5.59;63.06;100883.75;107780;1270;108857;-73
2022/03/16 06:33:23;;;;;;;88.50;54.20;;;;;;;5.63;63.27;100885.45;107856;1270;107673;-73
2022/03/16 06:35:56;;;;;;;87.40;55.60;;;;;;;5.68;63.00;100884.58;107675;1270;138503;-74
2022/03/16 06:38:29;;;;;;;85.30;55.30;;;;;;;5.73;63.08;100887.34;107839;1269;94867;-75
2022/03/16 06:41:02;;;;;;;93.70;58.20;;;;;;;5.75;62.55;100890.10;107653;1270;137429;-74
2022/03/16 06:43:34;;;;;;;90.90;58.60;;;;;;;5.80;62.39;100895.44;107808;1270;108982;-74
2022/03/16 06:46:07;;;;;;;85.50;57.70;;;;;;;5.85;62.33;100896.79;107646;1270;137695;-74
2022/03/16 06:48:42;;;;;;;90.20;58.60;;;;;;;5.91;62.24;100895.94;107841;1269;94862;-73
2022/03/16 06:51:15;;;;;;;82.60;55.90;;;;;;;5.99;61.89;100898.34;107834;1270;94633;-74
2022/03/16 06:53:47;;;;;;;81.80;56.20;;;;;;;6.02;61.88;100894.70;107726;1270;137859;-74
2022/03/16 06:56:20;;;;;;;89.80;56.90;;;;;;;6.08;61.59;100897.61;107716;1270;108105;-74
2022/03/16 06:58:52;;;;;;;92.60;58.90;;;;;;;6.16;61.30;100897.26;107695;1270;139643;-74
2022/03/16 07:01:25;;;;;;;91.90;57.80;;;;;;;6.21;61.05;100899.47;107788;1270;95039;-73
2022/03/16 07:03:57;;;;;;;84.20;57.90;;;;;;;6.26;60.99;100902.05;107765;1269;139040;-73
2022/03/16 07:06:31;;;;;;;89.60;57.20;;;;;;;6.34;60.89;100905.48;107762;1270;111069;-78
2022/03/16 07:09:03;;;;;;;87.00;56.90;;;;;;;6.41;60.76;100908.02;107845;1270;109407;-73
2022/03/16 07:11:37;;;;;;;85.10;58.70;;;;;;;6.47;60.79;100905.23;107321;1271;138630;-72
2022/03/16 07:17:01;;;;;;;88.30;58.50;;;;;;;6.68;60.25;100900.98;107681;1270;138082;-73
2022/03/16 07:19:34;;;;;;;90.20;57.70;;;;;;;6.82;59.71;100902.10;107764;1270;110523;-74
2022/03/16 07:22:06;;;;;;;81.90;57.30;;;;;;;6.93;59.70;100907.91;107661;1270;137703;-75
2022/03/16 07:24:40;;;;;;;85.40;57.80;;;;;;;7.06;59.41;100905.92;107682;1271;107914;-74
2022/03/16 07:27:14;;;;;;;88.30;59.00;;;;;;;7.24;59.20;100908.37;107492;1270;95707;-73
2022/03/16 07:29:47;;;;;;;85.50;56.70;;;;;;;7.42;58.61;100908.21;107564;1271;137446;-73
2022/03/16 07:32:20;;;;;;;86.20;56.80;;;;;;;7.62;58.09;100908.55;107625;1270;111377;-73
2022/03/16 07:34:53;;;;;;;89.40;57.00;;;;;;;7.83;57.80;100905.76;107555;1269;137779;-73
2022/03/16 07:37:26;;;;;;;87.50;57.50;;;;;;;8.11;57.37;100906.66;107621;1270;108667;-73
2022/03/16 07:40:00;;;;;;;96.80;58.40;;;;;;;8.47;56.80;100906.24;107314;1271;138039;-73
2022/03/16 07:42:39;;;;;;;88.60;56.90;;;;;;;8.85;55.97;100908.15;107112;1270;94958;-74
2022/03/16 07:45:13;;;;;;;82.80;56.50;;;;;;;9.19;55.60;100911.77;105707;1271;109767;-73
2022/03/16 07:47:46;;;;;;;82.50;55.80;;;;;;;9.60;55.04;100912.66;107345;1270;138340;-73
2022/03/16 07:50:20;;;;;;;79.60;55.20;;;;;;;9.95;54.28;100915.50;107524;1270;108804;-73
2022/03/16 07:52:54;;;;;;;83.80;55.50;;;;;;;10.17;53.34;100911.42;107350;1271;139456;-73
2022/03/16 07:55:30;;;;;;;78.30;54.70;;;;;;;10.36;52.90;100915.78;107380;1270;96328;-73
2022/03/16 07:58:05;;;;;;;83.40;54.90;;;;;;;10.53;52.12;100919.93;107461;1273;138769;-73
2022/03/16 08:00:40;;;;;;;76.30;55.00;;;;;;;10.67;51.69;100913.37;107450;1271;109093;-74
2022/03/16 08:03:14;;;;;;;77.60;54.70;;;;;;;10.82;51.32;100914.94;107563;1270;107967;-73
2022/03/16 08:05:48;;;;;;;75.30;54.10;;;;;;;11.01;50.78;100912.42;107386;1270;138514;-73
2022/03/16 08:08:21;;;;;;;77.10;54.10;;;;;;;11.13;50.16;100916.14;107508;1270;94984;-74
2022/03/16 08:10:56;;;;;;;85.90;54.20;;;;;;;11.21;49.67;100918.58;107539;1270;137672;-74
2022/03/16 08:13:30;;;;;;;82.90;53.90;;;;;;;11.31;49.38;100920.75;107693;1271;105751;-74
2022/03/16 08:16:04;;;;;;;73.50;51.80;;;;;;;11.48;48.94;100924.01;107608;1270;138099;-74
2022/03/16 08:18:40;;;;;;;75.90;53.60;;;;;;;11.62;48.44;100923.11;107573;1271;96028;-74
2022/03/16 08:21:14;;;;;;;73.70;53.90;;;;;;;11.80;48.13;100925.79;107449;1271;95274;-74
2022/03/16 08:23:48;;;;;;;107.20;55.00;;;;;;;12.02;47.75;100926.27;107478;1270;137665;-74
2022/03/16 08:26:23;;;;;;;77.70;53.20;;;;;;;12.23;47.29;100925.86;107459;1270;107985;-74
2022/03/16 08:28:56;;;;;;;78.00;53.60;;;;;;;12.45;46.84;100929.24;106698;1270;137977;-72
2022/03/16 08:31:29;;;;;;;70.80;53.20;;;;;;;12.64;46.27;100926.58;105672;1272;96609;-73
2022/03/16 08:34:03;;;;;;;78.60;53.60;;;;;;;12.80;45.56;100927.33;105856;1270;138305;-74
2022/03/16 08:36:38;;;;;;;74.40;52.30;;;;;;;12.93;45.35;100932.51;107457;1271;110601;-74
2022/03/16 08:39:11;;;;;;;72.90;51.40;;;;;;;13.01;45.06;100936.64;107287;1271;107990;-73
2022/03/16 08:41:46;;;;;;;74.30;51.30;;;;;;;13.15;44.94;100934.80;107299;1270;137866;-74
2022/03/16 08:44:20;;;;;;;77.10;50.10;;;;;;;13.31;44.34;100939.20;107447;1271;94698;-74
2022/03/16 08:46:56;;;;;;;74.70;51.60;;;;;;;13.43;44.07;100938.11;107288;1271;138238;-74
2022/03/16 08:49:30;;;;;;;74.70;52.10;;;;;;;13.57;43.98;100937.81;107386;1271;109189;-73
2022/03/16 08:52:04;;;;;;;67.30;49.80;;;;;;;13.71;43.63;100944.69;107312;1270;139891;-74
2022/03/16 08:54:38;;;;;;;73.00;49.50;;;;;;;13.77;42.95;100945.16;107419;1271;109113;-74
2022/03/16 08:57:12;;;;;;;79.80;51.80;;;;;;;13.74;42.55;100947.37;107369;1271;96182;-74
2022/03/16 08:59:45;;;;;;;76.70;50.90;;;;;;;13.65;42.56;100949.78;107497;1270;137787;-74
2022/03/16 09:02:18;;;;;;;75.70;51.20;;;;;;;13.59;42.57;100953.80;107416;1271;108933;-75
2022/03/16 09:04:54;;;;;;;113.80;55.70;;;;;;;13.57;42.36;100951.79;107295;1270;138112;-74
2022/03/16 09:07:28;;;;;;;88.40;52.70;;;;;;;13.51;42.02;100956.72;107367;1271;107107;-73
2022/03/16 09:10:02;;;;;;;111.20;56.10;;;;;;;13.41;42.10;100957.53;107339;1271;138477;-74
2022/03/16 09:12:37;;;;;;;77.00;51.30;;;;;;;13.35;41.79;100958.63;107657;1270;94719;-73
2022/03/16 09:15:11;;;;;;;72.90;50.00;;;;;;;13.27;41.84;100960.95;107605;1270;110079;-73
2022/03/16 09:17:44;;;;;;;71.30;51.90;;;;;;;13.29;41.73;100963.18;107414;1271;138547;-73
2022/03/16 09:20:17;;;;;;;75.30;52.60;;;;;;;13.35;41.52;100965.27;107518;1271;109008;-74
2022/03/16 09:22:50;;;;;;;78.90;52.10;;;;;;;13.43;41.24;100971.11;107384;1270;140453;-75
2022/03/16 09:25:25;;;;;;;73.90;51.70;;;;;;;13.59;41.33;100971.98;107507;1270;95948;-74
2022/03/16 09:28:00;;;;;;;76.40;51.70;;;;;;;13.92;40.88;100972.96;107341;1270;138854;-74
2022/03/16 09:30:38;;;;;;;76.70;51.60;;;;;;;14.29;40.48;100974.98;107551;1270;110811;-73
2022/03/16 09:33:11;;;;;;;73.30;51.40;;;;;;;14.72;40.07;100975.88;107532;1270;107884;-74
2022/03/16 09:35:48;;;;;;;68.70;50.60;;;;;;;15.26;39.55;100974.84;107340;1271;138389;-75
2022/03/16 09:38:25;;;;;;;73.10;49.10;;;;;;;15.85;39.06;100975.77;107464;1271;96147;-75
2022/03/16 09:41:00;;;;;;;68.60;49.30;;;;;;;16.34;38.26;100974.88;107375;1269;137606;-79
2022/03/16 09:43:36;;;;;;;67.60;49.30;;;;;;;16.79;37.60;100975.31;107434;1270;108943;-73
2022/03/16 09:46:15;;;;;;;64.90;47.20;;;;;;;17.30;37.05;100977.98;107405;1269;138129;-74
2022/03/16 09:48:48;;;;;;;71.60;48.40;;;;;;;17.84;36.39;100976.01;107392;1271;95229;-76
2022/03/16 09:51:23;;;;;;;63.00;48.50;;;;;;;18.46;36.18;100980.36;107491;1269;95219;-73
2022/03/16 09:54:00;;;;;;;63.30;48.30;;;;;;;19.20;35.42;100976.30;107431;1269;137962;-74
2022/03/16 09:56:35;;;;;;;63.70;46.80;;;;;;;19.93;34.69;100977.22;107550;1270;108199;-75
2022/03/16 09:59:09;;;;;;;61.70;46.10;;;;;;;20.56;34.02;100977.44;107391;1269;138807;-74
2022/03/16 10:01:45;;;;;;;63.10;44.70;;;;;;;21.00;33.49;100976.27;107490;1271;94949;-74
2022/03/16 10:04:31;;;;;;;57.00;42.60;;;;;;;21.35;32.87;100975.44;107351;1271;138964;-75
2022/03/16 10:07:11;;;;;;;58.40;40.80;;;;;;;21.78;31.90;100976.81;107431;1271;110672;-74
2022/03/16 10:15:26;;;;;;;54.20;40.90;;;;;;;22.92;30.42;100974.61;107813;1270;95643;-73
2022/03/16 10:18:03;;;;;;;49.90;40.60;;;;;;;23.23;30.33;100973.58;107633;1270;139480;-72
2022/03/16 10:20:43;;;;;;;53.10;40.10;;;;;;;23.48;30.02;100974.70;107655;1271;109107;-74
2022/03/16 10:23:20;;;;;;;44.40;36.80;;;;;;;23.87;29.39;100984.90;107553;1270;137733;-75
2022/03/16 10:25:59;;;;;;;44.70;35.00;;;;;;;24.12;29.03;100983.73;106645;1271;108375;-74
2022/03/16 10:28:35;;;;;;;38.80;32.70;;;;;;;24.22;28.21;100981.52;107576;1271;138619;-74
2022/03/16 10:31:14;;;;;;;46.80;34.80;;;;;;;24.26;28.23;100984.27;107700;1270;94709;-75
2022/03/16 10:33:51;;;;;;;46.70;34.00;;;;;;;24.29;28.21;100986.52;107535;1270;137969;-74
2022/03/16 10:36:27;;;;;;;40.80;31.80;;;;;;;24.41;27.99;100991.43;107723;1270;107922;-75
2022/03/16 10:39:03;;;;;;;42.30;33.90;;;;;;;24.51;27.85;100987.85;107705;1270;109253;-74
2022/03/16 10:47:24;;;;;;;40.40;29.60;;;;;;;24.48;26.40;101001.71;107543;1270;137951;-75
2022/03/16 10:50:09;;;;;;;39.50;29.90;;;;;;;24.10;25.59;100999.89;107783;1270;108949;-74
2022/03/16 10:52:44;;;;;;;43.70;31.70;;;;;;;23.85;26.56;101008.69;107706;1268;138772;-75
2022/03/16 10:55:16;;;;;;;39.30;29.80;;;;;;;23.73;26.79;101008.15;107767;1270;94748;-74
2022/03/16 10:57:50;;;;;;;40.80;31.30;;;;;;;23.52;26.03;101012.96;107738;1269;137843;-73
2022/03/16 11:00:27;;;;;;;42.50;31.50;;;;;;;22.85;26.12;101015.35;107807;1269;111029;-73
2022/03/16 11:03:03;;;;;;;39.40;30.10;;;;;;;22.27;26.70;101017.27;107847;1269;108108;-74
2022/03/16 11:05:40;;;;;;;43.90;30.40;;;;;;;22.04;27.20;101011.56;107674;1271;138278;-73
2022/03/16 11:08:15;;;;;;;44.40;31.00;;;;;;;21.94;27.40;101014.55;107837;1268;95541;-75
2022/03/16 11:10:49;;;;;;;43.50;31.30;;;;;;;21.90;27.50;101016.60;107662;1269;138307;-75
2022/03/16 11:13:32;;;;;;;43.90;32.00;;;;;;;21.76;27.45;101017.89;107760;1269;111148;-73
2022/03/16 11:16:06;;;;;;;43.30;32.90;;;;;;;21.55;27.39;101017.50;107742;1269;138084;-75
2022/03/16 11:18:40;;;;;;;49.10;32.40;;;;;;;21.43;27.84;101014.23;107743;1269;108719;-74
2022/03/16 11:21:15;;;;;;;42.00;32.40;;;;;;;21.43;28.21;101015.96;107803;1270;94883;-74
2022/03/16 11:26:49;;;;;;;42.80;31.20;;;;;;;21.53;28.21;101020.59;107853;1269;109971;-74
2022/03/16 11:29:34;;;;;;;44.10;31.40;;;;;;;21.52;28.22;101024.92;107666;1270;137973;-76
2022/03/16 11:32:15;;;;;;;35.90;29.10;;;;;;;21.47;28.14;101023.52;107711;1270;108367;-73
2022/03/16 11:34:59;;;;;;;41.90;29.20;;;;;;;21.29;28.01;101022.70;107561;1270;139080;-73
2022/03/16 11:37:43;;;;;;;39.50;27.40;;;;;;;21.14;28.23;101026.08;107675;1270;94719;-72
2022/03/16 11:40:20;;;;;;;38.40;28.60;;;;;;;20.96;28.26;101025.64;107585;1270;138370;-75
2022/03/16 11:43:21;;;;;;;37.40;28.50;;;;;;;20.62;27.71;101030.28;107710;1269;108408;-73
2022/03/16 11:45:57;;;;;;;37.30;28.50;;;;;;;20.17;28.32;101034.02;107621;1270;140195;-73